sensor_id;sensor_type;location;lat;lon;timestamp;pressure;altitude;pressure_sealevel;temperature;humidity
5755;BME280;2902;42.130;24.732;2023-03-03T00:01:15;99801.16;;;7.37;96.76
5755;BME280;2902;42.130;24.732;2023-03-03T00:03:42;99802.47;;;7.41;96.35
5755;BME280;2902;42.130;24.732;2023-03-03T00:06:12;99798.16;;;7.48;96.47
5755;BME280;2902;42.130;24.732;2023-03-03T00:08:39;99807.75;;;7.41;94.50
5755;BME280;2902;42.130;24.732;2023-03-03T00:11:07;99787.63;;;7.40;94.66
5755;BME280;2902;42.130;24.732;2023-03-03T00:13:42;99787.94;;;7.45;94.91
5755;BME280;2902;42.130;24.732;2023-03-03T00:16:15;99784.78;;;7.49;94.68
5755;BME280;2902;42.130;24.732;2023-03-03T00:18:43;99781.28;;;7.57;95.20
5755;BME280;2902;42.130;24.732;2023-03-03T00:21:23;99774.03;;;7.59;94.23
5755;BME280;2902;42.130;24.732;2023-03-03T00:23:54;99766.75;;;7.61;94.40
5755;BME280;2902;42.130;24.732;2023-03-03T00:26:24;99766.44;;;7.56;93.93
5755;BME280;2902;42.130;24.732;2023-03-03T00:28:52;99762.13;;;7.63;93.78
5755;BME280;2902;42.130;24.732;2023-03-03T00:31:26;99755.13;;;7.70;94.31
5755;BME280;2902;42.130;24.732;2023-03-03T00:33:56;99759.09;;;7.74;94.38
5755;BME280;2902;42.130;24.732;2023-03-03T00:36:30;99755.09;;;7.78;94.08
5755;BME280;2902;42.130;24.732;2023-03-03T00:39:03;99746.00;;;7.80;93.52
5755;BME280;2902;42.130;24.732;2023-03-03T00:41:38;99743.84;;;7.84;93.76
5755;BME280;2902;42.130;24.732;2023-03-03T00:47:29;99737.91;;;7.82;91.35
5755;BME280;2902;42.130;24.732;2023-03-03T00:50:25;99734.25;;;7.83;92.90
5755;BME280;2902;42.130;24.732;2023-03-03T00:53:03;99734.75;;;7.86;92.46
5755;BME280;2902;42.130;24.732;2023-03-03T00:55:32;99719.72;;;7.79;91.76
5755;BME280;2902;42.130;24.732;2023-03-03T00:57:59;99731.28;;;7.86;91.19
5755;BME280;2902;42.130;24.732;2023-03-03T01:00:26;99722.53;;;7.85;91.62
5755;BME280;2902;42.130;24.732;2023-03-03T01:02:54;99723.34;;;7.86;90.53
5755;BME280;2902;42.130;24.732;2023-03-03T01:05:21;99724.97;;;7.87;90.62
5755;BME280;2902;42.130;24.732;2023-03-03T01:07:48;99726.69;;;7.80;90.38
5755;BME280;2902;42.130;24.732;2023-03-03T01:10:14;99730.00;;;7.74;90.74
5755;BME280;2902;42.130;24.732;2023-03-03T01:12:41;99724.75;;;7.66;90.92
5755;BME280;2902;42.130;24.732;2023-03-03T01:15:09;99723.41;;;7.70;91.67
5755;BME280;2902;42.130;24.732;2023-03-03T01:17:37;99716.94;;;7.72;91.79
5755;BME280;2902;42.130;24.732;2023-03-03T01:20:08;99715.31;;;7.71;91.50
5755;BME280;2902;42.130;24.732;2023-03-03T01:22:34;99717.44;;;7.76;91.64
5755;BME280;2902;42.130;24.732;2023-03-03T01:25:01;99722.75;;;7.76;92.06
5755;BME280;2902;42.130;24.732;2023-03-03T01:27:29;99722.91;;;7.74;91.88
5755;BME280;2902;42.130;24.732;2023-03-03T01:29:56;99723.53;;;7.76;91.38
5755;BME280;2902;42.130;24.732;2023-03-03T01:32:23;99717.91;;;7.79;91.74
5755;BME280;2902;42.130;24.732;2023-03-03T01:34:50;99723.34;;;7.86;91.80
5755;BME280;2902;42.130;24.732;2023-03-03T01:37:18;99723.34;;;7.86;91.60
5755;BME280;2902;42.130;24.732;2023-03-03T01:39:47;99720.19;;;7.90;91.01
5755;BME280;2902;42.130;24.732;2023-03-03T01:42:14;99711.78;;;7.79;90.21
5755;BME280;2902;42.130;24.732;2023-03-03T01:44:41;99727.19;;;7.75;91.08
5755;BME280;2902;42.130;24.732;2023-03-03T01:47:10;99716.25;;;7.48;91.78
5755;BME280;2902;42.130;24.732;2023-03-03T01:49:42;99723.16;;;7.49;91.86
5755;BME280;2902;42.130;24.732;2023-03-03T01:52:22;99714.91;;;7.52;91.23
5755;BME280;2902;42.130;24.732;2023-03-03T01:54:54;99715.38;;;7.55;91.42
5755;BME280;2902;42.130;24.732;2023-03-03T01:57:25;99705.09;;;7.60;92.43
5755;BME280;2902;42.130;24.732;2023-03-03T01:59:54;99700.31;;;7.64;91.67
5755;BME280;2902;42.130;24.732;2023-03-03T02:02:24;99700.53;;;7.54;91.61
5755;BME280;2902;42.130;24.732;2023-03-03T02:04:53;99703.63;;;7.58;91.16
5755;BME280;2902;42.130;24.732;2023-03-03T02:07:21;99696.38;;;7.60;90.52
5755;BME280;2902;42.130;24.732;2023-03-03T02:09:54;99698.69;;;7.63;90.57
5755;BME280;2902;42.130;24.732;2023-03-03T02:12:25;99699.00;;;7.60;90.22
5755;BME280;2902;42.130;24.732;2023-03-03T02:14:51;99694.06;;;7.57;90.47
5755;BME280;2902;42.130;24.732;2023-03-03T02:17:18;99694.72;;;7.59;90.49
5755;BME280;2902;42.130;24.732;2023-03-03T02:19:51;99681.56;;;7.51;90.19
5755;BME280;2902;42.130;24.732;2023-03-03T02:22:28;99689.75;;;7.64;90.43
5755;BME280;2902;42.130;24.732;2023-03-03T02:25:01;99695.50;;;7.67;90.79
5755;BME280;2902;42.130;24.732;2023-03-03T02:27:31;99690.59;;;7.56;89.98
5755;BME280;2902;42.130;24.732;2023-03-03T02:30:08;99685.78;;;7.60;89.81
5755;BME280;2902;42.130;24.732;2023-03-03T02:32:35;99692.69;;;7.69;89.78
5755;BME280;2902;42.130;24.732;2023-03-03T02:35:27;99692.06;;;7.67;88.65
5755;BME280;2902;42.130;24.732;2023-03-03T02:38:01;99692.34;;;7.72;90.14
5755;BME280;2902;42.130;24.732;2023-03-03T02:40:36;99688.38;;;7.76;90.08
5755;BME280;2902;42.130;24.732;2023-03-03T02:43:06;99685.84;;;7.82;89.67
5755;BME280;2902;42.130;24.732;2023-03-03T02:45:41;99693.59;;;7.84;88.13
5755;BME280;2902;42.130;24.732;2023-03-03T02:48:08;99691.59;;;7.86;88.36
5755;BME280;2902;42.130;24.732;2023-03-03T02:50:34;99687.66;;;7.82;87.96
5755;BME280;2902;42.130;24.732;2023-03-03T02:53:01;99693.25;;;7.87;89.15
5755;BME280;2902;42.130;24.732;2023-03-03T02:55:28;99690.44;;;7.88;88.80
5755;BME280;2902;42.130;24.732;2023-03-03T02:57:54;99691.72;;;7.92;88.28
5755;BME280;2902;42.130;24.732;2023-03-03T03:00:22;99695.84;;;7.95;89.29
5755;BME280;2902;42.130;24.732;2023-03-03T03:02:49;99698.44;;;8.03;88.38
5755;BME280;2902;42.130;24.732;2023-03-03T03:05:16;99697.13;;;7.99;88.26
5755;BME280;2902;42.130;24.732;2023-03-03T03:07:43;99686.81;;;7.89;88.12
5755;BME280;2902;42.130;24.732;2023-03-03T03:10:10;99693.84;;;7.97;88.01
5755;BME280;2902;42.130;24.732;2023-03-03T03:12:36;99696.16;;;8.00;88.20
5755;BME280;2902;42.130;24.732;2023-03-03T03:15:04;99692.97;;;8.04;88.56
5755;BME280;2902;42.130;24.732;2023-03-03T03:17:35;99691.50;;;8.02;87.94
5755;BME280;2902;42.130;24.732;2023-03-03T03:20:03;99691.84;;;7.99;87.58
5755;BME280;2902;42.130;24.732;2023-03-03T03:22:29;99684.91;;;7.98;87.59
5755;BME280;2902;42.130;24.732;2023-03-03T03:24:56;99689.53;;;8.04;87.79
5755;BME280;2902;42.130;24.732;2023-03-03T03:27:23;99679.88;;;8.11;88.30
5755;BME280;2902;42.130;24.732;2023-03-03T03:29:50;99687.19;;;8.09;88.08
5755;BME280;2902;42.130;24.732;2023-03-03T03:32:16;99687.63;;;8.12;87.85
5755;BME280;2902;42.130;24.732;2023-03-03T03:34:45;99676.59;;;8.09;87.01
5755;BME280;2902;42.130;24.732;2023-03-03T03:37:12;99689.44;;;8.12;87.11
5755;BME280;2902;42.130;24.732;2023-03-03T03:39:38;99682.56;;;8.03;87.50
5755;BME280;2902;42.130;24.732;2023-03-03T03:42:05;99685.53;;;8.08;87.73
5755;BME280;2902;42.130;24.732;2023-03-03T03:44:32;99688.81;;;8.10;87.41
5755;BME280;2902;42.130;24.732;2023-03-03T03:46:59;99683.81;;;8.15;87.49
5755;BME280;2902;42.130;24.732;2023-03-03T03:49:25;99683.28;;;8.19;87.54
5755;BME280;2902;42.130;24.732;2023-03-03T03:51:54;99685.09;;;8.19;86.84
5755;BME280;2902;42.130;24.732;2023-03-03T03:54:21;99686.47;;;8.15;86.27
5755;BME280;2902;42.130;24.732;2023-03-03T03:56:48;99677.06;;;8.12;86.71
5755;BME280;2902;42.130;24.732;2023-03-03T03:59:14;99680.16;;;8.16;86.64
5755;BME280;2902;42.130;24.732;2023-03-03T04:01:41;99669.56;;;8.16;87.32
5755;BME280;2902;42.130;24.732;2023-03-03T04:04:08;99683.00;;;8.14;86.29
5755;BME280;2902;42.130;24.732;2023-03-03T04:06:34;99680.81;;;8.18;86.46
5755;BME280;2902;42.130;24.732;2023-03-03T04:09:02;99672.22;;;8.16;86.90
5755;BME280;2902;42.130;24.732;2023-03-03T04:11:29;99684.47;;;8.17;86.72
5755;BME280;2902;42.130;24.732;2023-03-03T04:13:56;99680.53;;;8.13;86.76
5755;BME280;2902;42.130;24.732;2023-03-03T04:16:23;99669.28;;;8.11;87.03
5755;BME280;2902;42.130;24.732;2023-03-03T04:18:50;99674.97;;;8.08;88.27
5755;BME280;2902;42.130;24.732;2023-03-03T04:21:16;99667.66;;;8.10;87.80
5755;BME280;2902;42.130;24.732;2023-03-03T04:23:43;99669.94;;;8.13;87.36
5755;BME280;2902;42.130;24.732;2023-03-03T04:26:11;99670.59;;;8.15;87.64
5755;BME280;2902;42.130;24.732;2023-03-03T04:28:38;99673.00;;;8.02;87.38
5755;BME280;2902;42.130;24.732;2023-03-03T04:31:04;99678.00;;;7.97;87.89
5755;BME280;2902;42.130;24.732;2023-03-03T04:33:31;99670.41;;;7.94;88.72
5755;BME280;2902;42.130;24.732;2023-03-03T04:35:58;99675.97;;;7.99;88.92
5755;BME280;2902;42.130;24.732;2023-03-03T04:38:25;99674.63;;;8.03;88.10
5755;BME280;2902;42.130;24.732;2023-03-03T04:40:52;99671.66;;;8.06;89.25
5755;BME280;2902;42.130;24.732;2023-03-03T04:43:20;99657.47;;;7.99;88.81
5755;BME280;2902;42.130;24.732;2023-03-03T04:45:46;99657.63;;;7.97;88.07
5755;BME280;2902;42.130;24.732;2023-03-03T04:48:13;99662.75;;;7.99;87.43
5755;BME280;2902;42.130;24.732;2023-03-03T04:50:41;99649.91;;;7.96;88.28
5755;BME280;2902;42.130;24.732;2023-03-03T04:53:08;99669.88;;;7.98;87.94
5755;BME280;2902;42.130;24.732;2023-03-03T04:55:35;99672.00;;;8.03;89.38
5755;BME280;2902;42.130;24.732;2023-03-03T04:58:02;99669.00;;;8.06;89.11
5755;BME280;2902;42.130;24.732;2023-03-03T05:00:30;99673.28;;;8.07;88.15
5755;BME280;2902;42.130;24.732;2023-03-03T05:02:57;99669.28;;;8.11;88.83
5755;BME280;2902;42.130;24.732;2023-03-03T05:05:24;99668.13;;;8.13;89.18
5755;BME280;2902;42.130;24.732;2023-03-03T05:07:51;99678.34;;;8.16;88.47
5755;BME280;2902;42.130;24.732;2023-03-03T05:10:17;99662.34;;;8.10;88.27
5755;BME280;2902;42.130;24.732;2023-03-03T05:12:45;99675.41;;;8.11;88.78
5755;BME280;2902;42.130;24.732;2023-03-03T05:15:12;99681.38;;;8.05;88.51
5755;BME280;2902;42.130;24.732;2023-03-03T05:17:40;99685.59;;;8.00;89.18
5755;BME280;2902;42.130;24.732;2023-03-03T05:20:08;99676.69;;;7.93;88.92
5755;BME280;2902;42.130;24.732;2023-03-03T05:22:35;99679.97;;;7.95;89.34
5755;BME280;2902;42.130;24.732;2023-03-03T05:25:02;99680.28;;;8.00;89.54
5755;BME280;2902;42.130;24.732;2023-03-03T05:27:28;99679.75;;;8.04;89.57
5755;BME280;2902;42.130;24.732;2023-03-03T05:29:55;99691.97;;;8.05;89.65
5755;BME280;2902;42.130;24.732;2023-03-03T05:32:22;99683.06;;;8.06;88.75
5755;BME280;2902;42.130;24.732;2023-03-03T05:34:50;99685.53;;;8.08;88.99
5755;BME280;2902;42.130;24.732;2023-03-03T05:37:17;99682.56;;;8.03;89.12
5755;BME280;2902;42.130;24.732;2023-03-03T05:39:44;99684.06;;;7.75;88.08
5755;BME280;2902;42.130;24.732;2023-03-03T05:42:11;99683.38;;;7.81;88.76
5755;BME280;2902;42.130;24.732;2023-03-03T05:44:38;99683.97;;;7.91;89.27
5755;BME280;2902;42.130;24.732;2023-03-03T05:47:05;99687.28;;;7.93;89.38
5755;BME280;2902;42.130;24.732;2023-03-03T05:49:31;99691.91;;;7.91;89.61
5755;BME280;2902;42.130;24.732;2023-03-03T05:52:00;99691.22;;;7.97;89.59
5755;BME280;2902;42.130;24.732;2023-03-03T05:54:27;99698.44;;;8.03;89.13
5755;BME280;2902;42.130;24.732;2023-03-03T05:56:53;99696.47;;;8.05;89.03
5755;BME280;2902;42.130;24.732;2023-03-03T05:59:22;99697.75;;;8.09;88.34
5755;BME280;2902;42.130;24.732;2023-03-03T06:01:49;99695.28;;;8.07;87.81
5755;BME280;2902;42.130;24.732;2023-03-03T06:04:16;99694.09;;;8.10;88.83
5755;BME280;2902;42.130;24.732;2023-03-03T06:06:43;99681.06;;;8.08;88.85
5755;BME280;2902;42.130;24.732;2023-03-03T06:09:11;99696.00;;;8.24;88.41
5755;BME280;2902;42.130;24.732;2023-03-03T06:11:37;99699.19;;;8.19;86.89
5755;BME280;2902;42.130;24.732;2023-03-03T06:14:04;99696.69;;;8.26;88.27
5755;BME280;2902;42.130;24.732;2023-03-03T06:16:31;99703.25;;;8.30;87.42
5755;BME280;2902;42.130;24.732;2023-03-03T06:18:57;99699.25;;;8.34;87.72
5755;BME280;2902;42.130;24.732;2023-03-03T06:21:24;99713.91;;;8.44;87.59
5755;BME280;2902;42.130;24.732;2023-03-03T06:23:51;99704.63;;;8.48;87.29
5755;BME280;2902;42.130;24.732;2023-03-03T06:26:19;99711.72;;;8.48;87.17
5755;BME280;2902;42.130;24.732;2023-03-03T06:28:46;99713.66;;;8.54;86.84
5755;BME280;2902;42.130;24.732;2023-03-03T06:31:14;99718.59;;;8.57;86.05
5755;BME280;2902;42.130;24.732;2023-03-03T06:33:41;99718.97;;;8.54;85.78
5755;BME280;2902;42.130;24.732;2023-03-03T06:36:08;99710.19;;;8.53;85.69
5755;BME280;2902;42.130;24.732;2023-03-03T06:38:35;99713.91;;;8.44;85.04
5755;BME280;2902;42.130;24.732;2023-03-03T06:41:02;99718.38;;;8.44;85.48
5755;BME280;2902;42.130;24.732;2023-03-03T06:43:33;99714.06;;;8.43;85.74
5755;BME280;2902;42.130;24.732;2023-03-03T06:45:59;99714.38;;;8.48;85.76
5755;BME280;2902;42.130;24.732;2023-03-03T06:48:26;99697.81;;;8.31;84.46
5755;BME280;2902;42.130;24.732;2023-03-03T06:50:53;99720.03;;;8.45;84.62
5755;BME280;2902;42.130;24.732;2023-03-03T06:53:19;99722.03;;;8.43;84.39
5755;BME280;2902;42.130;24.732;2023-03-03T06:55:46;99722.63;;;8.53;84.29
5755;BME280;2902;42.130;24.732;2023-03-03T06:58:15;99716.78;;;8.57;84.19
5755;BME280;2902;42.130;24.732;2023-03-03T07:00:45;99722.03;;;8.80;86.02
5755;BME280;2902;42.130;24.732;2023-03-03T07:03:16;99716.53;;;9.04;85.80
5755;BME280;2902;42.130;24.732;2023-03-03T07:05:43;99713.97;;;9.25;86.22
5755;BME280;2902;42.130;24.732;2023-03-03T07:08:13;99723.22;;;9.43;84.97
5755;BME280;2902;42.130;24.732;2023-03-03T07:10:42;99723.66;;;9.47;82.74
5755;BME280;2902;42.130;24.732;2023-03-03T07:13:17;99725.50;;;9.32;80.76
5755;BME280;2902;42.130;24.732;2023-03-03T07:15:46;99725.88;;;9.43;82.10
5755;BME280;2902;42.130;24.732;2023-03-03T07:18:33;99722.59;;;9.41;81.23
5755;BME280;2902;42.130;24.732;2023-03-03T07:21:12;99730.06;;;9.38;80.06
5755;BME280;2902;42.130;24.732;2023-03-03T07:23:40;99733.91;;;9.21;79.94
5755;BME280;2902;42.130;24.732;2023-03-03T07:26:10;99724.22;;;9.13;80.71
5755;BME280;2902;42.130;24.732;2023-03-03T07:28:40;99730.78;;;9.03;79.85
5755;BME280;2902;42.130;24.732;2023-03-03T07:31:25;99723.84;;;8.79;81.07
5755;BME280;2902;42.130;24.732;2023-03-03T07:33:54;99727.41;;;8.72;81.86
5755;BME280;2902;42.130;24.732;2023-03-03T07:36:26;99725.53;;;8.80;82.99
5755;BME280;2902;42.130;24.732;2023-03-03T07:38:57;99721.34;;;8.86;82.85
5755;BME280;2902;42.130;24.732;2023-03-03T07:41:24;99719.25;;;8.96;83.20
5755;BME280;2902;42.130;24.732;2023-03-03T07:43:53;99722.66;;;9.04;82.95
5755;BME280;2902;42.130;24.732;2023-03-03T07:46:28;99717.47;;;9.11;82.85
5755;BME280;2902;42.130;24.732;2023-03-03T07:48:57;99724.22;;;9.13;82.00
5755;BME280;2902;42.130;24.732;2023-03-03T07:51:25;99720.03;;;9.19;81.80
5755;BME280;2902;42.130;24.732;2023-03-03T07:53:55;99720.31;;;9.24;81.95
5755;BME280;2902;42.130;24.732;2023-03-03T07:56:29;99720.94;;;9.26;81.87
5755;BME280;2902;42.130;24.732;2023-03-03T07:58:57;99723.03;;;9.30;80.52
5755;BME280;2902;42.130;24.732;2023-03-03T08:01:39;99724.59;;;9.25;80.30
5755;BME280;2902;42.130;24.732;2023-03-03T08:04:16;99716.28;;;9.13;81.31
5755;BME280;2902;42.130;24.732;2023-03-03T08:06:45;99706.59;;;9.35;85.60
5755;BME280;2902;42.130;24.732;2023-03-03T08:09:40;99708.25;;;9.36;84.16
5755;BME280;2902;42.130;24.732;2023-03-03T08:12:38;99699.44;;;9.35;82.51
5755;BME280;2902;42.130;24.732;2023-03-03T08:15:23;99710.06;;;9.35;81.54
5755;BME280;2902;42.130;24.732;2023-03-03T08:17:54;99705.41;;;9.23;82.16
5755;BME280;2902;42.130;24.732;2023-03-03T08:20:43;99699.19;;;9.16;83.30
5755;BME280;2902;42.130;24.732;2023-03-03T08:23:12;99702.47;;;9.18;83.67
5755;BME280;2902;42.130;24.732;2023-03-03T08:25:39;99692.34;;;9.21;82.46
5755;BME280;2902;42.130;24.732;2023-03-03T08:28:06;99691.78;;;9.26;82.79
5755;BME280;2902;42.130;24.732;2023-03-03T08:30:33;99701.56;;;9.11;80.53
5755;BME280;2902;42.130;24.732;2023-03-03T08:33:01;99689.28;;;9.10;81.22
5755;BME280;2902;42.130;24.732;2023-03-03T08:35:28;99681.66;;;9.15;82.09
5755;BME280;2902;42.130;24.732;2023-03-03T08:37:55;99680.72;;;9.08;82.73
5755;BME280;2902;42.130;24.732;2023-03-03T08:40:21;99677.53;;;9.12;82.32
5755;BME280;2902;42.130;24.732;2023-03-03T08:42:48;99667.38;;;9.16;83.06
5755;BME280;2902;42.130;24.732;2023-03-03T08:45:15;99673.31;;;9.18;83.02
5755;BME280;2902;42.130;24.732;2023-03-03T08:47:42;99670.56;;;9.26;82.91
5755;BME280;2902;42.130;24.732;2023-03-03T08:50:11;99673.50;;;9.31;82.59
5755;BME280;2902;42.130;24.732;2023-03-03T08:52:38;99672.50;;;9.32;82.33
5755;BME280;2902;42.130;24.732;2023-03-03T08:55:05;99668.84;;;9.33;83.30
5755;BME280;2902;42.130;24.732;2023-03-03T08:57:32;99673.03;;;9.27;83.68
5755;BME280;2902;42.130;24.732;2023-03-03T08:59:59;99667.03;;;9.19;85.30
5755;BME280;2902;42.130;24.732;2023-03-03T09:02:26;99667.03;;;9.19;85.09
5755;BME280;2902;42.130;24.732;2023-03-03T09:04:52;99662.09;;;9.16;86.49
5755;BME280;2902;42.130;24.732;2023-03-03T09:07:20;99660.44;;;9.15;87.10
5755;BME280;2902;42.130;24.732;2023-03-03T09:09:47;99660.88;;;9.18;86.42
5755;BME280;2902;42.130;24.732;2023-03-03T09:12:16;99662.63;;;9.26;85.69
5755;BME280;2902;42.130;24.732;2023-03-03T09:14:43;99665.91;;;9.28;85.51
5755;BME280;2902;42.130;24.732;2023-03-03T09:17:28;99660.25;;;9.31;84.75
5755;BME280;2902;42.130;24.732;2023-03-03T09:19:59;99657.88;;;9.36;85.56
5755;BME280;2902;42.130;24.732;2023-03-03T09:22:35;99644.97;;;9.33;84.69
5755;BME280;2902;42.130;24.732;2023-03-03T09:25:13;99655.66;;;9.39;84.67
5755;BME280;2902;42.130;24.732;2023-03-03T09:27:44;99647.81;;;9.31;86.11
5755;BME280;2902;42.130;24.732;2023-03-03T09:30:26;99643.09;;;9.27;86.86
5755;BME280;2902;42.130;24.732;2023-03-03T09:32:56;99647.63;;;9.33;86.18
5755;BME280;2902;42.130;24.732;2023-03-03T09:35:34;99653.69;;;9.27;84.21
5755;BME280;2902;42.130;24.732;2023-03-03T09:38:09;99650.38;;;9.25;84.01
5755;BME280;2902;42.130;24.732;2023-03-03T09:40:51;99643.88;;;9.27;85.05
5755;BME280;2902;42.130;24.732;2023-03-03T09:43:26;99651.66;;;9.29;83.96
5755;BME280;2902;42.130;24.732;2023-03-03T09:46:03;99640.97;;;9.37;85.79
5755;BME280;2902;42.130;24.732;2023-03-03T09:48:49;99641.22;;;9.42;85.28
5755;BME280;2902;42.130;24.732;2023-03-03T09:51:29;99644.78;;;9.34;85.04
5755;BME280;2902;42.130;24.732;2023-03-03T09:54:10;99642.34;;;9.33;85.88
5755;BME280;2902;42.130;24.732;2023-03-03T09:56:43;99632.47;;;9.27;85.39
5755;BME280;2902;42.130;24.732;2023-03-03T09:59:23;99634.94;;;9.14;86.42
5755;BME280;2902;42.130;24.732;2023-03-03T10:02:03;99628.72;;;9.21;87.41
5755;BME280;2902;42.130;24.732;2023-03-03T10:04:51;99632.91;;;9.30;86.09
5755;BME280;2902;42.130;24.732;2023-03-03T10:07:37;99626.75;;;9.44;86.74
5755;BME280;2902;42.130;24.732;2023-03-03T10:10:16;99643.75;;;9.50;85.79
5755;BME280;2902;42.130;24.732;2023-03-03T10:12:55;99635.91;;;9.42;85.16
5755;BME280;2902;42.130;24.732;2023-03-03T10:15:31;99638.22;;;9.30;84.52
5755;BME280;2902;42.130;24.732;2023-03-03T10:18:12;99631.53;;;9.34;85.38
5755;BME280;2902;42.130;24.732;2023-03-03T10:20:57;99623.31;;;9.44;85.73
5755;BME280;2902;42.130;24.732;2023-03-03T10:23:40;99626.66;;;9.52;85.59
5755;BME280;2902;42.130;24.732;2023-03-03T10:26:20;99625.84;;;9.52;84.78
5755;BME280;2902;42.130;24.732;2023-03-03T10:29:07;99631.16;;;9.52;84.81
5755;BME280;2902;42.130;24.732;2023-03-03T10:31:48;99631.22;;;9.58;85.45
5755;BME280;2902;42.130;24.732;2023-03-03T10:34:30;99628.31;;;9.53;83.34
5755;BME280;2902;42.130;24.732;2023-03-03T10:37:05;99615.97;;;9.46;83.64
5755;BME280;2902;42.130;24.732;2023-03-03T10:40:07;99611.16;;;9.49;83.95
5755;BME280;2902;42.130;24.732;2023-03-03T10:42:50;99610.75;;;9.52;83.77
5755;BME280;2902;42.130;24.732;2023-03-03T10:48:31;99603.75;;;9.45;84.27
5755;BME280;2902;42.130;24.732;2023-03-03T10:51:06;99603.22;;;9.35;84.13
5755;BME280;2902;42.130;24.732;2023-03-03T10:53:44;99595.53;;;9.40;85.03
5755;BME280;2902;42.130;24.732;2023-03-03T10:56:28;99594.25;;;9.36;85.22
5755;BME280;2902;42.130;24.732;2023-03-03T10:59:14;99597.19;;;9.26;84.25
5755;BME280;2902;42.130;24.732;2023-03-03T11:01:49;99580.22;;;9.06;85.06
5755;BME280;2902;42.130;24.732;2023-03-03T11:07:13;99574.06;;;9.06;86.99
5755;BME280;2902;42.130;24.732;2023-03-03T11:10:04;99575.19;;;8.97;86.28
5755;BME280;2902;42.130;24.732;2023-03-03T11:12:44;99570.63;;;8.91;86.52
5755;BME280;2902;42.130;24.732;2023-03-03T11:15:29;99573.81;;;9.01;87.10
5755;BME280;2902;42.130;24.732;2023-03-03T11:18:22;99568.53;;;9.01;86.07
5755;BME280;2902;42.130;24.732;2023-03-03T11:20:55;99554.16;;;9.10;85.89
5755;BME280;2902;42.130;24.732;2023-03-03T11:23:42;99564.28;;;9.21;86.58
5755;BME280;2902;42.130;24.732;2023-03-03T11:26:16;99568.56;;;9.22;85.13
5755;BME280;2902;42.130;24.732;2023-03-03T11:29:00;99561.97;;;9.32;86.18
5755;BME280;2902;42.130;24.732;2023-03-03T11:31:35;99563.41;;;9.49;85.58
5755;BME280;2902;42.130;24.732;2023-03-03T11:34:09;99558.84;;;9.43;83.40
5755;BME280;2902;42.130;24.732;2023-03-03T11:36:43;99556.84;;;9.45;83.48
5755;BME280;2902;42.130;24.732;2023-03-03T11:39:17;99556.16;;;9.58;83.13
5755;BME280;2902;42.130;24.732;2023-03-03T11:41:56;99554.66;;;9.70;82.24
5755;BME280;2902;42.130;24.732;2023-03-03T11:44:28;99553.25;;;9.74;82.47
5755;BME280;2902;42.130;24.732;2023-03-03T11:47:01;99540.44;;;9.77;83.03
5755;BME280;2902;42.130;24.732;2023-03-03T11:49:36;99543.03;;;9.71;82.32
5755;BME280;2902;42.130;24.732;2023-03-03T11:52:21;99535.34;;;9.76;82.62
5755;BME280;2902;42.130;24.732;2023-03-03T11:54:53;99534.88;;;9.93;83.05
5755;BME280;2902;42.130;24.732;2023-03-03T11:57:26;99533.94;;;10.01;81.96
5755;BME280;2902;42.130;24.732;2023-03-03T12:00:01;99532.72;;;10.03;80.78
5755;BME280;2902;42.130;24.732;2023-03-03T12:02:44;99536.69;;;10.07;81.09
5755;BME280;2902;42.130;24.732;2023-03-03T12:05:30;99530.88;;;10.04;81.11
5755;BME280;2902;42.130;24.732;2023-03-03T12:08:07;99526.72;;;10.16;81.24
5755;BME280;2902;42.130;24.732;2023-03-03T12:10:46;99517.91;;;10.36;81.41
5755;BME280;2902;42.130;24.732;2023-03-03T12:13:21;99521.94;;;10.60;81.32
5755;BME280;2902;42.130;24.732;2023-03-03T12:15:54;99526.09;;;10.75;80.38
5755;BME280;2902;42.130;24.732;2023-03-03T12:18:49;99525.78;;;10.91;79.19
5755;BME280;2902;42.130;24.732;2023-03-03T12:21:29;99535.84;;;10.62;77.39
5755;BME280;2902;42.130;24.732;2023-03-03T12:27:02;99524.44;;;10.68;78.58
5755;BME280;2902;42.130;24.732;2023-03-03T12:29:38;99521.22;;;10.79;78.27
5755;BME280;2902;42.130;24.732;2023-03-03T12:32:17;99519.19;;;10.81;77.76
5755;BME280;2902;42.130;24.732;2023-03-03T12:34:50;99522.00;;;10.73;77.68
5755;BME280;2902;42.130;24.732;2023-03-03T12:37:42;99515.84;;;10.66;78.13
5755;BME280;2902;42.130;24.732;2023-03-03T12:40:15;99526.03;;;10.62;78.19
5755;BME280;2902;42.130;24.732;2023-03-03T12:42:55;99530.09;;;10.58;77.16
5755;BME280;2902;42.130;24.732;2023-03-03T12:45:35;99531.69;;;10.53;76.59
5755;BME280;2902;42.130;24.732;2023-03-03T12:48:08;99521.84;;;10.47;77.43
5755;BME280;2902;42.130;24.732;2023-03-03T12:50:42;99526.94;;;10.42;78.28
5755;BME280;2902;42.130;24.732;2023-03-03T12:53:22;99527.31;;;10.39;78.14
5755;BME280;2902;42.130;24.732;2023-03-03T12:55:52;99524.25;;;10.35;78.10
5755;BME280;2902;42.130;24.732;2023-03-03T12:58:34;99526.28;;;10.40;77.78
5755;BME280;2902;42.130;24.732;2023-03-03T13:01:11;99520.97;;;10.40;78.22
5755;BME280;2902;42.130;24.732;2023-03-03T13:03:46;99522.88;;;10.46;78.65
5755;BME280;2902;42.130;24.732;2023-03-03T13:06:24;99512.03;;;10.47;79.42
5755;BME280;2902;42.130;24.732;2023-03-03T13:09:11;99512.00;;;10.41;78.83
5755;BME280;2902;42.130;24.732;2023-03-03T13:11:47;99507.09;;;10.38;79.68
5755;BME280;2902;42.130;24.732;2023-03-03T13:14:24;99503.78;;;10.36;78.58
5755;BME280;2902;42.130;24.732;2023-03-03T13:17:02;99504.63;;;10.36;78.79
5755;BME280;2902;42.130;24.732;2023-03-03T13:19:34;99505.88;;;10.40;79.08
5755;BME280;2902;42.130;24.732;2023-03-03T13:22:09;99507.38;;;10.22;79.61
5755;BME280;2902;42.130;24.732;2023-03-03T13:24:44;99510.19;;;10.14;80.70
5755;BME280;2902;42.130;24.732;2023-03-03T13:27:19;99511.81;;;10.15;81.46
5755;BME280;2902;42.130;24.732;2023-03-03T13:29:55;99498.78;;;10.20;81.37
5755;BME280;2902;42.130;24.732;2023-03-03T13:32:30;99496.81;;;10.28;80.74
5755;BME280;2902;42.130;24.732;2023-03-03T13:35:06;99496.44;;;10.31;80.84
5755;BME280;2902;42.130;24.732;2023-03-03T13:37:39;99500.69;;;10.26;81.10
5755;BME280;2902;42.130;24.732;2023-03-03T13:40:15;99496.63;;;10.30;79.19
5755;BME280;2902;42.130;24.732;2023-03-03T13:42:46;99492.75;;;10.32;79.81
5755;BME280;2902;42.130;24.732;2023-03-03T13:45:19;99486.03;;;10.36;79.98
5755;BME280;2902;42.130;24.732;2023-03-03T13:47:55;99492.16;;;10.37;79.26
5755;BME280;2902;42.130;24.732;2023-03-03T13:50:26;99499.25;;;10.23;79.54
5755;BME280;2902;42.130;24.732;2023-03-03T13:53:15;99493.63;;;10.12;80.46
5755;BME280;2902;42.130;24.732;2023-03-03T13:55:56;99489.72;;;10.08;81.58
5755;BME280;2902;42.130;24.732;2023-03-03T13:58:30;99494.63;;;10.11;80.54